Terminal Aerodrome Forecast
Issued by NWS

Home | Current Version | Previous Version | Text Only | Print | Product List | Glossary On
Versions: 1 2 3 4 5 6 7 8 9 10 11 12 13 14 15 16 17 18 19 20 21 22 23
926
FTUS43 KILX 281746
TAFBMI
TAF
KBMI 281746Z 2818/2918 14015G20KT P6SM VCSH SCT030 OVC070
      TEMPO 2818/2820 5SM -SHRA BR BKN025
     FM282000 13014KT 6SM -SHRA BR SCT015 OVC035
      TEMPO 2820/2824 4SM SHRA BR BKN015 OVC035
     FM290000 09011KT P6SM VCSH OVC015
     FM290400 05010KT P6SM OVC010
     FM291000 06016G20KT 6SM -SHRA BR OVC008=

USA.gov is the U.S. government's official web portal to all federal, state and local government web resources and services.